GLO1040 SBSP-SBRJ
Flight info
| Callsign | GLO1040 |
|---|---|
| Flight time | 0h 48m |
| Altitude | 27000 |
| Route | NIBRU UZ171 KEVUN |
| Aircraft | B738/M-SDE2E3FGHIRWXY/LB1 |
Departure
| Time | 2026-04-30 21:53 |
|---|---|
| Airport | Congonhas–Deputado Freitas Nobre Airport (SBSP) |
Arrival
| Time | 2026-04-30 22:41 |
|---|---|
| Airport | Santos Dumont Airport (SBRJ) |
| Time | Latitude | Longitude | Altitude | Speed | Heading |
|---|---|---|---|---|---|
| 2026-04-30 21:38 | -23.62812 | -46.65754 | 2600 ft | 0 kts | 238° |
| 2026-04-30 21:45 | -23.62810 | -46.65750 | 2600 ft | 3 kts | 238° |
| 2026-04-30 21:46 | -23.62799 | -46.65734 | 2600 ft | 3 kts | 204° |
| 2026-04-30 21:46 | -23.62782 | -46.65733 | 2600 ft | 1 kts | 152° |
| 2026-04-30 21:46 | -23.62782 | -46.65734 | 2600 ft | 0 kts | 152° |
| 2026-04-30 21:48 | -23.62784 | -46.65729 | 2600 ft | 1 kts | 125° |
| 2026-04-30 21:48 | -23.62776 | -46.65714 | 2601 ft | 4 kts | 39° |
| 2026-04-30 21:49 | -23.62733 | -46.65714 | 2601 ft | 9 kts | 342° |
| 2026-04-30 21:49 | -23.62674 | -46.65751 | 2601 ft | 10 kts | 329° |
| 2026-04-30 21:49 | -23.62615 | -46.65790 | 2601 ft | 10 kts | 328° |
| 2026-04-30 21:49 | -23.62558 | -46.65830 | 2601 ft | 10 kts | 328° |
| 2026-04-30 21:50 | -23.62501 | -46.65869 | 2600 ft | 11 kts | 328° |
| 2026-04-30 21:50 | -23.62425 | -46.65921 | 2600 ft | 14 kts | 328° |
| 2026-04-30 21:50 | -23.62343 | -46.65978 | 2599 ft | 14 kts | 327° |
| 2026-04-30 21:50 | -23.62265 | -46.66031 | 2599 ft | 13 kts | 329° |
| 2026-04-30 21:51 | -23.62186 | -46.66079 | 2594 ft | 13 kts | 330° |
| 2026-04-30 21:51 | -23.62113 | -46.66130 | 2591 ft | 12 kts | 328° |
| 2026-04-30 21:51 | -23.62033 | -46.66110 | 2592 ft | 14 kts | 59° |
| 2026-04-30 21:51 | -23.62045 | -46.66078 | 2588 ft | 2 kts | 147° |
| 2026-04-30 21:52 | -23.62134 | -46.66015 | 2597 ft | 47 kts | 147° |
| 2026-04-30 21:52 | -23.62623 | -46.65678 | 2604 ft | 117 kts | 147° |
| 2026-04-30 21:52 | -23.63462 | -46.65087 | 2758 ft | 162 kts | 146° |
| 2026-04-30 21:52 | -23.64105 | -46.64622 | 3226 ft | 171 kts | 144° |
| 2026-04-30 21:53 | -23.65319 | -46.63459 | 4162 ft | 195 kts | 121° |
| 2026-04-30 21:53 | -23.65953 | -46.62037 | 4425 ft | 225 kts | 117° |
| 2026-04-30 21:53 | -23.66695 | -46.60415 | 4698 ft | 252 kts | 119° |
| 2026-04-30 21:53 | -23.67532 | -46.58642 | 5176 ft | 271 kts | 118° |
| 2026-04-30 21:54 | -23.68408 | -46.56812 | 6035 ft | 275 kts | 118° |
| 2026-04-30 21:54 | -23.69021 | -46.55545 | 6509 ft | 283 kts | 118° |
| 2026-04-30 21:54 | -23.70271 | -46.52984 | 7541 ft | 290 kts | 118° |
| 2026-04-30 21:54 | -23.71225 | -46.51034 | 8437 ft | 292 kts | 118° |
| 2026-04-30 21:55 | -23.71784 | -46.49658 | 8987 ft | 295 kts | 105° |
| 2026-04-30 21:55 | -23.71889 | -46.47456 | 9835 ft | 298 kts | 83° |
| 2026-04-30 21:55 | -23.71609 | -46.45190 | 10509 ft | 307 kts | 80° |
| 2026-04-30 21:55 | -23.71259 | -46.42862 | 11180 ft | 314 kts | 80° |
| 2026-04-30 21:56 | -23.70895 | -46.40509 | 11950 ft | 317 kts | 80° |
| 2026-04-30 21:56 | -23.70532 | -46.38118 | 12664 ft | 322 kts | 81° |
| 2026-04-30 21:56 | -23.70171 | -46.35684 | 13359 ft | 328 kts | 81° |
| 2026-04-30 21:56 | -23.69808 | -46.33200 | 14029 ft | 334 kts | 81° |
| 2026-04-30 21:57 | -23.69444 | -46.30678 | 14611 ft | 340 kts | 81° |
| 2026-04-30 21:57 | -23.69077 | -46.28122 | 15297 ft | 342 kts | 81° |
| 2026-04-30 21:57 | -23.68708 | -46.25544 | 15944 ft | 346 kts | 81° |
| 2026-04-30 21:57 | -23.68335 | -46.22940 | 16574 ft | 351 kts | 81° |
| 2026-04-30 21:58 | -23.67958 | -46.20308 | 17282 ft | 352 kts | 81° |
| 2026-04-30 21:58 | -23.67580 | -46.17668 | 17967 ft | 355 kts | 81° |
| 2026-04-30 21:58 | -23.67194 | -46.14978 | 18475 ft | 363 kts | 80° |
| 2026-04-30 21:58 | -23.66800 | -46.12238 | 18958 ft | 369 kts | 81° |
| 2026-04-30 21:59 | -23.66400 | -46.09456 | 19517 ft | 372 kts | 81° |
| 2026-04-30 21:59 | -23.65998 | -46.06658 | 20062 ft | 376 kts | 81° |
| 2026-04-30 21:59 | -23.65591 | -46.03827 | 20583 ft | 381 kts | 81° |
| 2026-04-30 22:00 | -23.64759 | -45.98048 | 21614 ft | 390 kts | 81° |
| 2026-04-30 22:00 | -23.63906 | -45.92139 | 22631 ft | 399 kts | 81° |
| 2026-04-30 22:00 | -23.63477 | -45.89172 | 23154 ft | 403 kts | 81° |
| 2026-04-30 22:01 | -23.63038 | -45.86143 | 23657 ft | 407 kts | 80° |
| 2026-04-30 22:01 | -23.62588 | -45.83038 | 24077 ft | 411 kts | 81° |
| 2026-04-30 22:01 | -23.62145 | -45.79992 | 24508 ft | 414 kts | 81° |
| 2026-04-30 22:01 | -23.61693 | -45.76882 | 24954 ft | 416 kts | 81° |
| 2026-04-30 22:02 | -23.61238 | -45.73757 | 25429 ft | 418 kts | 80° |
| 2026-04-30 22:02 | -23.60779 | -45.70612 | 25861 ft | 422 kts | 81° |
| 2026-04-30 22:02 | -23.60316 | -45.67438 | 26250 ft | 425 kts | 81° |
| 2026-04-30 22:02 | -23.59848 | -45.64241 | 26660 ft | 429 kts | 81° |
| 2026-04-30 22:03 | -23.59376 | -45.61020 | 27073 ft | 432 kts | 81° |
| 2026-04-30 22:03 | -23.58895 | -45.57747 | 27123 ft | 442 kts | 81° |
| 2026-04-30 22:03 | -23.58406 | -45.54413 | 27140 ft | 448 kts | 81° |
| 2026-04-30 22:03 | -23.57913 | -45.51058 | 27142 ft | 448 kts | 81° |
| 2026-04-30 22:04 | -23.57420 | -45.47713 | 27140 ft | 444 kts | 81° |
| 2026-04-30 22:04 | -23.56868 | -45.44415 | 27133 ft | 441 kts | 77° |
| 2026-04-30 22:04 | -23.55491 | -45.37936 | 27142 ft | 437 kts | 76° |
| 2026-04-30 22:05 | -23.54781 | -45.34754 | 27140 ft | 437 kts | 76° |
| 2026-04-30 22:05 | -23.54072 | -45.31537 | 27140 ft | 437 kts | 76° |
| 2026-04-30 22:05 | -23.53373 | -45.28316 | 27149 ft | 435 kts | 76° |
| 2026-04-30 22:05 | -23.52687 | -45.25118 | 26981 ft | 432 kts | 76° |
| 2026-04-30 22:06 | -23.52011 | -45.21951 | 26680 ft | 427 kts | 76° |
| 2026-04-30 22:06 | -23.50679 | -45.15688 | 25920 ft | 422 kts | 76° |
| 2026-04-30 22:06 | -23.50017 | -45.12581 | 25547 ft | 420 kts | 76° |
| 2026-04-30 22:07 | -23.49357 | -45.09491 | 25133 ft | 419 kts | 76° |
| 2026-04-30 22:07 | -23.48699 | -45.06404 | 24749 ft | 419 kts | 76° |
| 2026-04-30 22:07 | -23.48039 | -45.03301 | 24340 ft | 421 kts | 76° |
| 2026-04-30 22:07 | -23.47371 | -45.00190 | 23943 ft | 420 kts | 76° |
| 2026-04-30 22:08 | -23.46707 | -44.97100 | 23512 ft | 419 kts | 76° |
| 2026-04-30 22:08 | -23.46044 | -44.94021 | 23092 ft | 416 kts | 76° |
| 2026-04-30 22:08 | -23.45376 | -44.90981 | 22733 ft | 411 kts | 75° |
| 2026-04-30 22:08 | -23.44705 | -44.87963 | 22343 ft | 408 kts | 75° |
| 2026-04-30 22:09 | -23.44037 | -44.84972 | 21955 ft | 404 kts | 75° |
| 2026-04-30 22:09 | -23.43377 | -44.82010 | 21568 ft | 401 kts | 75° |
| 2026-04-30 22:09 | -23.42721 | -44.79068 | 21196 ft | 398 kts | 76° |
| 2026-04-30 22:09 | -23.42070 | -44.76148 | 20814 ft | 396 kts | 76° |
| 2026-04-30 22:10 | -23.41423 | -44.73246 | 20440 ft | 393 kts | 76° |
| 2026-04-30 22:10 | -23.40780 | -44.70361 | 20063 ft | 391 kts | 76° |
| 2026-04-30 22:10 | -23.40140 | -44.67494 | 19684 ft | 389 kts | 76° |
| 2026-04-30 22:10 | -23.39503 | -44.64639 | 19302 ft | 387 kts | 76° |
| 2026-04-30 22:11 | -23.38238 | -44.58983 | 18552 ft | 383 kts | 76° |
| 2026-04-30 22:11 | -23.37610 | -44.56177 | 18149 ft | 380 kts | 76° |
| 2026-04-30 22:11 | -23.36986 | -44.53393 | 17738 ft | 377 kts | 76° |
| 2026-04-30 22:12 | -23.36367 | -44.50631 | 17358 ft | 374 kts | 76° |
| 2026-04-30 22:12 | -23.35751 | -44.47886 | 16989 ft | 371 kts | 76° |
| 2026-04-30 22:12 | -23.35141 | -44.45171 | 16666 ft | 366 kts | 76° |
| 2026-04-30 22:12 | -23.34533 | -44.42492 | 16284 ft | 364 kts | 74° |
| 2026-04-30 22:13 | -23.33688 | -44.39918 | 15977 ft | 359 kts | 66° |
| 2026-04-30 22:13 | -23.32653 | -44.37499 | 15621 ft | 356 kts | 63° |
| 2026-04-30 22:13 | -23.31558 | -44.35094 | 15275 ft | 354 kts | 63° |
| 2026-04-30 22:13 | -23.30471 | -44.32703 | 14926 ft | 351 kts | 63° |
| 2026-04-30 22:14 | -23.29405 | -44.30320 | 14557 ft | 350 kts | 64° |
| 2026-04-30 22:14 | -23.28358 | -44.27941 | 14200 ft | 348 kts | 64° |
| 2026-04-30 22:14 | -23.27323 | -44.25562 | 13817 ft | 347 kts | 64° |
| 2026-04-30 22:14 | -23.26298 | -44.23192 | 13417 ft | 345 kts | 64° |
| 2026-04-30 22:15 | -23.25285 | -44.20841 | 13049 ft | 342 kts | 64° |
| 2026-04-30 22:15 | -23.24279 | -44.18506 | 12692 ft | 340 kts | 64° |
| 2026-04-30 22:15 | -23.23280 | -44.16186 | 12337 ft | 337 kts | 64° |
| 2026-04-30 22:15 | -23.22287 | -44.13884 | 11986 ft | 335 kts | 64° |
| 2026-04-30 22:16 | -23.21302 | -44.11598 | 11641 ft | 333 kts | 64° |
| 2026-04-30 22:16 | -23.20322 | -44.09329 | 11300 ft | 331 kts | 64° |
| 2026-04-30 22:17 | -23.17354 | -44.02785 | 10698 ft | 313 kts | 62° |
| 2026-04-30 22:17 | -23.16382 | -44.00684 | 10527 ft | 309 kts | 63° |
| 2026-04-30 22:17 | -23.14556 | -43.96567 | 10200 ft | 296 kts | 64° |
| 2026-04-30 22:18 | -23.13700 | -43.94552 | 10038 ft | 291 kts | 64° |
| 2026-04-30 22:18 | -23.12033 | -43.90627 | 9717 ft | 283 kts | 64° |
| 2026-04-30 22:19 | -23.10378 | -43.86748 | 9419 ft | 284 kts | 64° |
| 2026-04-30 22:19 | -23.09547 | -43.84802 | 9270 ft | 284 kts | 64° |
| 2026-04-30 22:19 | -23.07871 | -43.80887 | 8957 ft | 287 kts | 64° |
| 2026-04-30 22:20 | -23.07027 | -43.78919 | 8806 ft | 288 kts | 65° |
| 2026-04-30 22:20 | -23.05335 | -43.74971 | 8496 ft | 287 kts | 65° |
| 2026-04-30 22:20 | -23.04497 | -43.73019 | 8335 ft | 283 kts | 65° |
| 2026-04-30 22:21 | -23.03670 | -43.71095 | 8177 ft | 279 kts | 65° |
| 2026-04-30 22:21 | -23.02847 | -43.69186 | 7977 ft | 280 kts | 65° |
| 2026-04-30 22:21 | -23.02012 | -43.67273 | 7738 ft | 281 kts | 65° |
| 2026-04-30 22:21 | -23.01169 | -43.65350 | 7485 ft | 283 kts | 65° |
| 2026-04-30 22:22 | -23.00327 | -43.63427 | 7193 ft | 282 kts | 65° |
| 2026-04-30 22:22 | -22.99486 | -43.61511 | 6973 ft | 279 kts | 65° |
| 2026-04-30 22:22 | -22.98659 | -43.59629 | 6787 ft | 274 kts | 65° |
| 2026-04-30 22:22 | -22.97845 | -43.57777 | 6620 ft | 270 kts | 65° |
| 2026-04-30 22:23 | -22.97039 | -43.55945 | 6467 ft | 268 kts | 66° |
| 2026-04-30 22:23 | -22.96239 | -43.54127 | 6281 ft | 266 kts | 66° |
| 2026-04-30 22:23 | -22.95449 | -43.52323 | 6118 ft | 265 kts | 66° |
| 2026-04-30 22:23 | -22.94657 | -43.50523 | 6003 ft | 267 kts | 66° |
| 2026-04-30 22:24 | -22.93860 | -43.48650 | 5656 ft | 276 kts | 66° |
| 2026-04-30 22:24 | -22.93065 | -43.46766 | 5342 ft | 272 kts | 66° |
| 2026-04-30 22:24 | -22.92288 | -43.44929 | 5083 ft | 264 kts | 66° |
| 2026-04-30 22:24 | -22.91534 | -43.43145 | 4806 ft | 257 kts | 66° |
| 2026-04-30 22:25 | -22.90806 | -43.41423 | 4645 ft | 242 kts | 65° |
| 2026-04-30 22:25 | -22.90128 | -43.39826 | 4526 ft | 224 kts | 65° |
| 2026-04-30 22:25 | -22.89505 | -43.38357 | 4418 ft | 206 kts | 65° |
| 2026-04-30 22:25 | -22.88936 | -43.37017 | 4280 ft | 191 kts | 65° |
| 2026-04-30 22:26 | -22.87889 | -43.34342 | 3518 ft | 198 kts | 72° |
| 2026-04-30 22:26 | -22.87447 | -43.32943 | 3257 ft | 192 kts | 72° |
| 2026-04-30 22:26 | -22.87029 | -43.31622 | 3043 ft | 178 kts | 72° |
| 2026-04-30 22:27 | -22.86639 | -43.30401 | 2879 ft | 163 kts | 72° |
| 2026-04-30 22:27 | -22.86281 | -43.29282 | 2689 ft | 150 kts | 73° |
| 2026-04-30 22:27 | -22.85624 | -43.27232 | 2382 ft | 142 kts | 73° |
| 2026-04-30 22:28 | -22.85651 | -43.25175 | 2011 ft | 139 kts | 100° |
| 2026-04-30 22:28 | -22.85797 | -43.24133 | 1832 ft | 140 kts | 100° |
| 2026-04-30 22:29 | -22.86230 | -43.21033 | 1267 ft | 138 kts | 100° |
| 2026-04-30 22:29 | -22.86375 | -43.20005 | 1110 ft | 137 kts | 101° |
| 2026-04-30 22:30 | -22.87656 | -43.16382 | 590 ft | 134 kts | 162° |
| 2026-04-30 22:31 | -22.90369 | -43.16320 | 88 ft | 126 kts | 179° |
| 2026-04-30 22:32 | -22.93112 | -43.15333 | 1256 ft | 191 kts | 116° |
| 2026-04-30 22:32 | -22.93770 | -43.12458 | 2868 ft | 210 kts | 92° |
| 2026-04-30 22:33 | -22.94801 | -43.07661 | 3990 ft | 224 kts | 115° |
| 2026-04-30 22:33 | -22.96262 | -43.04622 | 4041 ft | 228 kts | 111° |
| 2026-04-30 22:34 | -22.99137 | -43.00660 | 4043 ft | 235 kts | 109° |
| 2026-04-30 22:35 | -22.98220 | -42.97460 | 4015 ft | 232 kts | 31° |
| 2026-04-30 22:36 | -22.92256 | -42.97022 | 3872 ft | 225 kts | 323° |
| 2026-04-30 22:36 | -22.91179 | -42.98250 | 3738 ft | 231 kts | 306° |
| 2026-04-30 22:37 | -22.88438 | -43.02487 | 3008 ft | 219 kts | 305° |
| 2026-04-30 22:37 | -22.87607 | -43.03804 | 2767 ft | 206 kts | 298° |
| 2026-04-30 22:37 | -22.86898 | -43.06615 | 2296 ft | 179 kts | 282° |
| 2026-04-30 22:38 | -22.86341 | -43.09015 | 1835 ft | 154 kts | 282° |
| 2026-04-30 22:38 | -22.85912 | -43.10866 | 1485 ft | 148 kts | 281° |
| 2026-04-30 22:39 | -22.85594 | -43.12300 | 1242 ft | 146 kts | 277° |
| 2026-04-30 22:39 | -22.86156 | -43.15359 | 856 ft | 137 kts | 234° |
| 2026-04-30 22:40 | -22.88208 | -43.16473 | 464 ft | 129 kts | 175° |
| 2026-04-30 22:41 | -22.90856 | -43.16293 | 25 ft | 114 kts | 172° |
| 2026-04-30 22:41 | -22.91492 | -43.16260 | 19 ft | 12 kts | 191° |
| 2026-04-30 22:42 | -22.91366 | -43.16502 | 23 ft | 11 kts | 354° |
| 2026-04-30 22:43 | -22.91318 | -43.16549 | 21 ft | 7 kts | 271° |